Starlight Venture — VRAL2 — position and weather

sailwx.info

Track history (hours):
 
Tides and Currents Weather Stations Pressure Air Temp Water Temp Dewpoint Dewpoint Depression Visibility Wind Speed Wind Dir Waves Ship Positions

Starlight Venture

Last reported at 2017-Sep-17 04:40 UTC. Time now 2017-Nov-23 03:35 UTC.
Position N 25°44' W 115°38'.
Warning: this ship's position is months out of date.

Length 333 m; draft 11 m.

Type: Tanker. MMSI: 477680100.

Date/timePositionNaut miles runAvg speedWind from/ knotsBaromVisibWave heightAir tempDewpointWater temp
2017-Sep-17 04:40N 25°44' W 115°38'214.4
2017-Sep-17 04:30N 25°47' W 115°38'714.8
2017-Sep-17 04:00N 25°54' W 115°40'38813.9
2017-Sep-16 00:10N 32°09' W 117°34'214.1
2017-Sep-16 00:00N 32°11' W 117°35'713.8
2017-Sep-15 23:30N 32°17' W 117°38'713.8
2017-Sep-15 23:00N 32°24' W 117°41'714.1
2017-Sep-15 22:30N 32°30' W 117°44'714.1
2017-Sep-15 22:01N 32°37' W 117°47'714.3
2017-Sep-15 21:31N 32°43' W 117°50'714.4
2017-Sep-15 21:01N 32°50' W 117°53'714.2
2017-Sep-15 20:30N 32°57' W 117°56'714.2
2017-Sep-15 20:00N 33°03' W 117°59'612.1
2017-Sep-15 19:30N 33°09' W 118°01'611.5
2017-Sep-15 19:00N 33°14' W 118°04'510.3
2017-Sep-15 18:31N 33°19' W 118°06'4 7.5
2017-Sep-15 18:01N 33°23' W 118°08'4 7.8
2017-Sep-15 17:31N 33°26' W 118°09'4 7.8
2017-Sep-15 17:00N 33°30' W 118°11'4 7.9
2017-Sep-15 16:31N 33°34' W 118°12'4 7.4
2017-Sep-15 16:00N 33°38' W 118°12'3 6.9
2017-Sep-15 15:30N 33°41' W 118°11'3 5.9
2017-Sep-15 15:00N 33°44' W 118°12'2 3.1
2017-Sep-15 14:23N 33°45' W 118°13'0 0.0
2017-Sep-15 12:16N 33°45' W 118°13'0 0.0
2017-Sep-15 10:58N 33°45' W 118°13'0 0.0
2017-Sep-15 10:28N 33°45' W 118°13'0 0.0
2017-Sep-15 07:34N 33°45' W 118°13'0 0.0
2017-Sep-15 01:04N 33°45' W 118°13'0 0.0
2017-Sep-15 00:58N 33°45' W 118°13'0 0.0
2017-Sep-15 00:28N 33°45' W 118°13'0 0.0
2017-Sep-14 23:58N 33°45' W 118°13'0 0.0
2017-Sep-14 23:22N 33°45' W 118°13'0 0.0
2017-Sep-14 22:58N 33°45' W 118°13'0 0.0
2017-Sep-14 22:28N 33°45' W 118°13'0 0.0
2017-Sep-14 20:34N 33°45' W 118°13'0 0.1
2017-Sep-14 20:28N 33°45' W 118°13'0 0.0
2017-Sep-14 19:46N 33°45' W 118°13'0 0.0
2017-Sep-14 19:28N 33°45' W 118°13'0 0.0
2017-Sep-14 17:58N 33°45' W 118°13'0 0.8
2017-Sep-14 17:30N 33°45' W 118°13'2 4.7
2017-Sep-14 17:00N 33°43' W 118°11'3 6.1
2017-Sep-14 16:30N 33°40' W 118°10'3 6.2
2017-Sep-14 16:00N 33°37' W 118°10'4 7.6
2017-Sep-14 15:30N 33°34' W 118°09'5 8.8
2017-Sep-14 15:00N 33°29' W 118°07'5 9.8
2017-Sep-14 14:30N 33°25' W 118°05'510.8
2017-Sep-14 14:00N 33°20' W 118°03'5 9.9
2017-Sep-14 13:30N 33°18' W 117°57'3 6.4
2017-Sep-14 13:00N 33°17' W 117°54'0 0.1
2017-Sep-14 12:30N 33°17' W 117°54'0 0.2
2017-Sep-14 12:00N 33°17' W 117°54'0 0.3
2017-Sep-14 11:30N 33°17' W 117°54'0 0.3
2017-Sep-14 11:00N 33°17' W 117°54'0 0.4
2017-Sep-14 10:30N 33°17' W 117°54'0 0.5
2017-Sep-14 10:00N 33°18' W 117°54'0 0.5
2017-Sep-14 09:30N 33°18' W 117°54'0 0.6
2017-Sep-14 09:00N 33°18' W 117°54'0 0.6
2017-Sep-14 08:30N 33°19' W 117°54'0 0.5
2017-Sep-14 08:00N 33°19' W 117°54'0 0.5
2017-Sep-14 07:30N 33°19' W 117°54'0 0.5
2017-Sep-14 07:00N 33°19' W 117°54'0 0.5
2017-Sep-14 06:30N 33°19' W 117°55'0 0.6
2017-Sep-14 06:00N 33°19' W 117°55'0 0.5
2017-Sep-14 05:30N 33°19' W 117°55'1 1.7
2017-Sep-14 05:00N 33°18' W 117°55'3 5.2
2017-Sep-14 04:30N 33°16' W 117°55'4 9.0
2017-Sep-14 04:00N 33°12' W 117°53'511.0
2017-Sep-14 03:30N 33°06' W 117°51'510.0
2017-Sep-14 03:00N 33°01' W 117°51'1 2.1
2017-Sep-14 02:30N 33°00' W 117°51'0 0.9
2017-Sep-14 02:00N 33°01' W 117°51'0 1.0
2017-Sep-14 01:30N 33°01' W 117°52'0 0.9
2017-Sep-14 01:00N 33°01' W 117°53'0 0.8
2017-Sep-14 00:30N 33°01' W 117°53'0 0.7
2017-Sep-14 00:00N 33°01' W 117°53'0 0.8
2017-Sep-13 23:30N 33°01' W 117°54'0 0.8
2017-Sep-13 23:00N 33°01' W 117°54'0 0.7
2017-Sep-13 22:30N 33°01' W 117°55'0 0.6
2017-Sep-13 22:00N 33°01' W 117°55'0 0.6
2017-Sep-13 21:30N 33°01' W 117°55'0 0.8
2017-Sep-13 21:00N 33°01' W 117°56'1 2.0
2017-Sep-13 20:30N 33°00' W 117°57'2 4.5
2017-Sep-13 20:00N 32°59' W 117°59'3 6.8
2017-Sep-13 19:30N 32°56' W 118°01'611.6
2017-Sep-13 19:00N 32°50' W 118°03'713.1
2017-Sep-13 18:30N 32°44' W 118°03'713.4
2017-Sep-13 18:00N 32°37' W 118°05'713.8
2017-Sep-13 17:30N 32°31' W 118°08'713.9
2017-Sep-13 17:00N 32°24' W 118°11'713.4
2017-Sep-13 16:30N 32°18' W 118°14'611.7
2017-Sep-13 16:00N 32°13' W 118°16'4 7.8
2017-Sep-13 15:30N 32°09' W 118°18'2 4.3
2017-Sep-13 15:00N 32°07' W 118°19'0 0.8
2017-Sep-13 14:30N 32°07' W 118°20'0 0.6
2017-Sep-13 14:00N 32°07' W 118°20'0 0.7
2017-Sep-13 13:30N 32°07' W 118°21'0 0.7
2017-Sep-13 13:00N 32°07' W 118°21'0 0.7
2017-Sep-13 12:30N 32°07' W 118°21'0 0.7
2017-Sep-13 12:00N 32°06' W 118°22'0 0.8
2017-Sep-13 11:30N 32°06' W 118°22'0 0.7
2017-Sep-13 11:00N 32°06' W 118°22'0 0.7
2017-Sep-13 10:30N 32°06' W 118°23'0 0.7
2017-Sep-13 10:00N 32°06' W 118°23'0 0.6
2017-Sep-13 09:30N 32°06' W 118°23'0 0.6
2017-Sep-13 09:00N 32°05' W 118°24'0 0.7
2017-Sep-13 08:30N 32°05' W 118°24'0 0.8
2017-Sep-13 07:58N 32°05' W 118°24'0 0.9
2017-Sep-13 07:30N 32°05' W 118°25'0 0.8
2017-Sep-13 07:00N 32°05' W 118°25'0 0.8
2017-Sep-13 06:30N 32°04' W 118°26'0 0.8
2017-Sep-13 06:00N 32°04' W 118°26'0 0.7
2017-Sep-13 05:30N 32°04' W 118°26'0 0.6
2017-Sep-13 05:00N 32°04' W 118°27'0 0.6
2017-Sep-13 04:30N 32°03' W 118°27'0 0.4
2017-Sep-13 04:00N 32°03' W 118°27'0 0.4
2017-Sep-13 03:30N 32°03' W 118°27'0 0.3
2017-Sep-13 03:00N 32°03' W 118°28'0 0.4
2017-Sep-13 02:30N 32°03' W 118°28'0 0.4
2017-Sep-13 02:00N 32°03' W 118°28'0 0.3
2017-Sep-13 01:30N 32°03' W 118°28'0 0.4
2017-Sep-13 01:00N 32°03' W 118°28'0 0.5
2017-Sep-13 00:30N 32°04' W 118°29'0 0.4
2017-Sep-13 00:00N 32°04' W 118°29'0 0.5
2017-Sep-12 23:30N 32°04' W 118°29'0 0.5
2017-Sep-12 23:00N 32°04' W 118°29'0 0.5
2017-Sep-12 22:30N 32°04' W 118°29'0 0.6
2017-Sep-12 22:00N 32°05' W 118°29'0 0.6
2017-Sep-12 21:30N 32°05' W 118°30'0 0.7
2017-Sep-12 21:00N 32°05' W 118°30'0 0.7
2017-Sep-12 20:30N 32°05' W 118°30'0 0.7
2017-Sep-12 20:00N 32°05' W 118°31'0 0.4
2017-Sep-12 19:30N 32°05' W 118°31'0 0.4
2017-Sep-12 19:00N 32°05' W 118°31'0 0.5
2017-Sep-12 18:30N 32°05' W 118°31'0 0.6
2017-Sep-12 18:00N 32°05' W 118°32'0 0.4
2017-Sep-12 17:30N 32°05' W 118°32'0 0.4
2017-Sep-12 17:00N 32°05' W 118°32'0 0.6
2017-Sep-12 16:30N 32°05' W 118°32'0 0.5
2017-Sep-12 16:00N 32°04' W 118°33'0 0.2
2017-Sep-12 15:30N 32°04' W 118°33'0 0.2
2017-Sep-12 15:00N 32°04' W 118°33'0 0.3
2017-Sep-12 14:30N 32°04' W 118°33'0 0.3
2017-Sep-12 14:00N 32°04' W 118°33'0 0.4
2017-Sep-12 13:30N 32°04' W 118°33'0 0.4
2017-Sep-12 13:00N 32°04' W 118°34'0 0.4
2017-Sep-12 12:30N 32°04' W 118°34'0 0.5
2017-Sep-12 12:00N 32°04' W 118°34'0 0.6
2017-Sep-12 11:30N 32°04' W 118°35'0 0.7
2017-Sep-12 11:00N 32°04' W 118°35'0 0.8
2017-Sep-12 10:30N 32°04' W 118°36'0 0.7
2017-Sep-12 10:00N 32°04' W 118°36'0 0.7
2017-Sep-12 09:30N 32°04' W 118°36'0 0.5
2017-Sep-12 09:00N 32°04' W 118°37'0 0.6
2017-Sep-12 08:30N 32°04' W 118°37'0 0.6
2017-Sep-12 08:00N 32°03' W 118°37'0 0.4
2017-Sep-12 07:30N 32°03' W 118°37'0 0.4
2017-Sep-12 07:00N 32°03' W 118°37'0 0.5
2017-Sep-12 06:30N 32°03' W 118°37'0 0.3
2017-Sep-12 06:00N 32°03' W 118°37'0 0.0
2017-Sep-12 05:29N 32°03' W 118°37'0 0.3
2017-Sep-12 05:00N 32°03' W 118°37'0 0.2
2017-Sep-12 04:30N 32°03' W 118°38'0 0.5
2017-Sep-12 04:00N 32°03' W 118°38'0 0.5
2017-Sep-12 03:30N 32°03' W 118°38'0 0.5
2017-Sep-12 03:00N 32°03' W 118°38'0 0.5
2017-Sep-12 02:30N 32°03' W 118°38'0 0.6
2017-Sep-12 02:00N 32°03' W 118°39'0 0.6
2017-Sep-12 01:30N 32°04' W 118°39'0 0.6
2017-Sep-12 01:00N 32°04' W 118°39'0 0.6
2017-Sep-12 00:30N 32°04' W 118°39'0 0.7
2017-Sep-12 00:00N 32°04' W 118°39'0 0.7
2017-Sep-11 23:30N 32°05' W 118°40'0 0.9
2017-Sep-11 23:00N 32°05' W 118°40'0 0.8
2017-Sep-11 22:30N 32°05' W 118°40'0 0.8
2017-Sep-11 22:00N 32°05' W 118°41'0 0.8
2017-Sep-11 21:30N 32°06' W 118°41'0 0.7
2017-Sep-11 21:00N 32°06' W 118°41'0 0.5
2017-Sep-11 20:30N 32°06' W 118°42'0 0.4
2017-Sep-11 20:00N 32°06' W 118°42'0 0.3
2017-Sep-11 19:30N 32°06' W 118°42'0 0.2
2017-Sep-11 19:00N 32°06' W 118°42'0 0.4
2017-Sep-11 18:30N 32°06' W 118°42'0 0.3
2017-Sep-11 18:00N 32°06' W 118°43'0 0.4
2017-Sep-11 17:30N 32°06' W 118°43'0 0.3
2017-Sep-11 17:00N 32°06' W 118°43'0 0.2
2017-Sep-11 16:30N 32°06' W 118°43'0 0.1
2017-Sep-11 16:00N 32°06' W 118°43'0 0.1
2017-Sep-11 15:30N 32°06' W 118°43'0 0.2
2017-Sep-11 15:00N 32°05' W 118°43'0 0.0
2017-Sep-11 14:28N 32°05' W 118°43'0 0.1
2017-Sep-11 14:00N 32°05' W 118°43'0 0.3
2017-Sep-11 13:30N 32°06' W 118°43'0 0.3
2017-Sep-11 13:00N 32°06' W 118°43'0 0.3
2017-Sep-11 12:30N 32°06' W 118°43'0 0.3
2017-Sep-11 12:00N 32°06' W 118°43'0 0.5
2017-Sep-11 11:30N 32°06' W 118°43'0 0.4
2017-Sep-11 11:00N 32°06' W 118°43'0 0.5
2017-Sep-11 10:30N 32°07' W 118°43'0 0.5
2017-Sep-11 10:00N 32°07' W 118°44'0 0.6
2017-Sep-11 09:30N 32°07' W 118°44'0 0.7
2017-Sep-11 09:00N 32°07' W 118°44'0 0.7
2017-Sep-11 08:27N 32°08' W 118°44'0 0.6
2017-Sep-11 08:00N 32°08' W 118°44'0 0.6
2017-Sep-11 07:30N 32°08' W 118°45'0 0.5
2017-Sep-11 07:00N 32°08' W 118°45'0 0.5
2017-Sep-11 06:30N 32°08' W 118°45'0 0.6
2017-Sep-11 06:00N 32°09' W 118°45'0 0.5
2017-Sep-11 05:30N 32°09' W 118°45'0 0.6
2017-Sep-11 05:00N 32°09' W 118°45'0 0.6
2017-Sep-11 04:30N 32°09' W 118°46'0 0.8
2017-Sep-11 04:00N 32°10' W 118°46'0 0.8
2017-Sep-11 03:30N 32°10' W 118°46'0 0.9
2017-Sep-11 03:00N 32°10' W 118°47'1 1.2
2017-Sep-11 02:30N 32°11' W 118°47'1 1.6
2017-Sep-11 02:00N 32°11' W 118°48'1 1.6
2017-Sep-11 01:30N 32°11' W 118°49'1 1.7
2017-Sep-11 01:00N 32°11' W 118°50'3 5.6
2017-Sep-11 00:30N 32°08' W 118°50'612.7
2017-Sep-11 00:00N 32°02' W 118°51'613.0
2017-Sep-10 23:30N 31°55' W 118°51'713.6
2017-Sep-10 23:00N 31°48' W 118°52'713.3
2017-Sep-10 22:30N 31°42' W 118°52'713.6
2017-Sep-10 21:59N 31°35' W 118°53'713.6
2017-Sep-10 21:30N 31°28' W 118°53'713.4
2017-Sep-10 21:00N 31°21' W 118°53'713.4
2017-Sep-10 20:30N 31°15' W 118°54'713.7
2017-Sep-10 20:00N 31°08' W 118°54'713.6
2017-Sep-10 19:30N 31°01' W 118°54'713.3
2017-Sep-10 19:00N 30°54' W 118°54'713.2
2017-Sep-10 18:30N 30°48' W 118°54'713.5
2017-Sep-10 18:00N 30°41' W 118°54'612.8
2017-Sep-10 17:30N 30°35' W 118°54'612.5
2017-Sep-10 17:00N 30°28' W 118°55'4 7.7
2017-Sep-10 16:30N 30°25' W 118°55'5 6.7
2017-Sep-10 15:42N 30°19' W 118°56'1 3.7
2017-Sep-10 15:28N 30°18' W 118°56'5 1.6
2017-Sep-10 12:15N 30°23' W 118°55'8 1.8
2017-Sep-10 07:42N 30°32' W 118°56'0 1.9
2017-Sep-10 07:26N 30°32' W 118°57'3 1.8
2017-Sep-10 05:50N 30°35' W 118°57'1 1.8
2017-Sep-10 05:30N 30°35' W 118°58'1 1.8
2017-Sep-10 05:00N 30°36' W 118°58'5 1.8
2017-Sep-10 02:26N 30°40' W 119°00'1 1.9
2017-Sep-10 01:51N 30°41' W 119°01'1 1.7
2017-Sep-10 01:30N 30°42' W 119°01'1 1.5
2017-Sep-10 01:00N 30°43' W 119°02'1 1.2
2017-Sep-10 00:26N 30°43' W 119°02'1 1.3
2017-Sep-10 00:00N 30°44' W 119°02'1 1.4
2017-Sep-09 23:26N 30°45' W 119°02'1 1.5
2017-Sep-09 23:00N 30°45' W 119°02'1 1.5
2017-Sep-09 22:27N 30°46' W 119°02'1 1.5
2017-Sep-09 21:45N 30°47' W 119°03'1 1.6
2017-Sep-09 21:07N 30°48' W 119°03'0 1.5
2017-Sep-09 21:00N 30°48' W 119°03'1 1.4
2017-Sep-09 20:24N 30°49' W 119°03'1 1.1
2017-Sep-09 19:11N 30°50' W 119°04'1 1.1
2017-Sep-09 18:23N 30°51' W 119°04'1 1.0
2017-Sep-09 17:47N 30°52' W 119°04'0 1.1
2017-Sep-09 17:21N 30°52' W 119°05'0 1.2
2017-Sep-09 16:57N 30°53' W 119°05'1 1.4
2017-Sep-09 16:15N 30°54' W 119°05'2 1.7
2017-Sep-09 15:01N 30°56' W 119°05'0 1.7
2017-Sep-09 14:50N 30°56' W 119°05'7 1.8
2017-Sep-09 10:51N 31°03' W 119°08'1 1.8
2017-Sep-09 10:17N 31°04' W 119°08'0 1.5
2017-Sep-09 10:00N 31°04' W 119°08'1 1.5
2017-Sep-09 09:00N 31°06' W 119°09'1 1.4
2017-Sep-09 08:24N 31°06' W 119°09'1 1.3
2017-Sep-09 07:56N 31°07' W 119°09'1 1.3
2017-Sep-09 07:04N 31°08' W 119°10'0 1.5
2017-Sep-09 06:59N 31°08' W 119°10'1 1.6
2017-Sep-09 06:07N 31°10' W 119°10'0 1.6
2017-Sep-09 06:00N 31°10' W 119°10'1 1.7
2017-Sep-09 05:28N 31°11' W 119°10'1 1.7
2017-Sep-09 04:48N 31°12' W 119°10'1 1.8
2017-Sep-09 04:11N 31°13' W 119°10'0 1.8
2017-Sep-09 04:00N 31°13' W 119°10'1 1.9
2017-Sep-09 03:19N 31°15' W 119°10'1 1.8
2017-Sep-09 02:58N 31°15' W 119°10'1 2.0
2017-Sep-09 02:30N 31°16' W 119°10'1 2.0
2017-Sep-09 02:00N 31°17' W 119°10'1 1.9
2017-Sep-09 01:30N 31°18' W 119°10'1 2.0
2017-Sep-09 01:00N 31°19' W 119°10'1 2.0
2017-Sep-09 00:30N 31°20' W 119°10'1 2.0
2017-Sep-09 00:00N 31°21' W 119°11'1 1.9
2017-Sep-08 23:30N 31°22' W 119°11'1 1.9
2017-Sep-08 23:00N 31°23' W 119°11'1 1.9
2017-Sep-08 22:30N 31°24' W 119°11'1 1.7
2017-Sep-08 22:00N 31°25' W 119°12'1 1.6
2017-Sep-08 21:30N 31°25' W 119°12'1 1.6
2017-Sep-08 21:00N 31°26' W 119°12'1 1.6
2017-Sep-08 20:30N 31°27' W 119°12'1 1.6
2017-Sep-08 20:00N 31°28' W 119°13'1 1.5
2017-Sep-08 19:30N 31°28' W 119°13'1 1.4
2017-Sep-08 19:00N 31°29' W 119°13'1 1.4
2017-Sep-08 18:30N 31°30' W 119°13'1 1.4
2017-Sep-08 18:00N 31°30' W 119°14'1 1.3
2017-Sep-08 17:30N 31°31' W 119°14'1 1.4
2017-Sep-08 17:00N 31°32' W 119°14'1 1.7
2017-Sep-08 16:30N 31°32' W 119°14'1 1.9
2017-Sep-08 16:00N 31°33' W 119°14'1 2.1
2017-Sep-08 15:30N 31°34' W 119°15'1 2.3
2017-Sep-08 15:00N 31°36' W 119°15'1 2.5
2017-Sep-08 14:30N 31°37' W 119°15'1 2.5
2017-Sep-08 14:00N 31°38' W 119°15'1 2.4
2017-Sep-08 13:30N 31°39' W 119°15'1 2.3
2017-Sep-08 13:00N 31°40' W 119°15'1 2.4
2017-Sep-08 12:30N 31°42' W 119°15'1 2.4
2017-Sep-08 12:00N 31°43' W 119°15'1 2.5
2017-Sep-08 11:30N 31°44' W 119°15'1 2.6
2017-Sep-08 11:00N 31°45' W 119°15'1 2.6
2017-Sep-08 10:30N 31°47' W 119°15'1 2.6
2017-Sep-08 10:00N 31°48' W 119°15'1 2.6
2017-Sep-08 09:30N 31°49' W 119°15'1 2.6
2017-Sep-08 09:00N 31°51' W 119°15'1 2.6
2017-Sep-08 08:29N 31°52' W 119°15'1 2.7
2017-Sep-08 08:00N 31°53' W 119°15'1 2.8
2017-Sep-08 07:30N 31°55' W 119°15'1 2.8
2017-Sep-08 07:00N 31°56' W 119°15'2 3.0
2017-Sep-08 06:30N 31°57' W 119°15'2 3.0
2017-Sep-08 06:00N 31°59' W 119°15'1 2.9
2017-Sep-08 05:30N 32°00' W 119°15'1 2.8
2017-Sep-08 05:00N 32°02' W 119°15'1 2.9
2017-Sep-08 04:30N 32°03' W 119°15'1 2.8
2017-Sep-08 04:00N 32°05' W 119°16'1 2.9
2017-Sep-08 03:30N 32°06' W 119°16'1 2.5
2017-Sep-08 03:00N 32°07' W 119°15'5 9.4
2017-Sep-08 02:30N 32°07' W 119°09'612.5
2017-Sep-08 02:00N 32°07' W 119°02'612.8
2017-Sep-08 01:30N 32°06' W 118°54'713.2
2017-Sep-08 01:00N 32°06' W 118°47'713.3
2017-Sep-08 00:30N 32°05' W 118°39'713.2
2017-Sep-08 00:00N 32°04' W 118°31'712.9
2017-Sep-07 23:30N 32°04' W 118°23'612.7
2017-Sep-07 23:00N 32°04' W 118°16'611.9
2017-Sep-07 22:30N 32°04' W 118°09'1 2.1
2017-Sep-07 22:00N 32°03' W 118°08'1 1.8
2017-Sep-07 21:30N 32°03' W 118°09'1 1.7
2017-Sep-07 21:00N 32°04' W 118°10'1 1.8
2017-Sep-07 20:30N 32°04' W 118°11'1 2.0
2017-Sep-07 20:00N 32°04' W 118°12'1 1.9
2017-Sep-07 19:30N 32°04' W 118°13'1 1.9
2017-Sep-07 19:00N 32°04' W 118°15'1 1.8
2017-Sep-07 18:30N 32°04' W 118°16'1 1.6
2017-Sep-07 18:00N 32°04' W 118°17'1 1.2
2017-Sep-07 17:30N 32°04' W 118°17'1 1.3
2017-Sep-07 17:00N 32°04' W 118°18'1 1.3
2017-Sep-07 16:30N 32°04' W 118°19'1 1.3
2017-Sep-07 16:00N 32°04' W 118°20'1 1.4
2017-Sep-07 15:30N 32°04' W 118°21'1 1.4
2017-Sep-07 15:00N 32°04' W 118°21'1 1.7
2017-Sep-07 14:30N 32°04' W 118°22'1 1.7
2017-Sep-07 14:00N 32°04' W 118°23'1 1.8
2017-Sep-07 13:30N 32°04' W 118°24'1 1.7
2017-Sep-07 13:00N 32°04' W 118°25'1 1.6
2017-Sep-07 12:30N 32°04' W 118°26'1 1.5
2017-Sep-07 12:00N 32°04' W 118°27'1 1.4
2017-Sep-07 11:30N 32°04' W 118°28'1 1.2
2017-Sep-07 11:00N 32°04' W 118°29'1 1.0
2017-Sep-07 10:30N 32°04' W 118°29'0 0.9
2017-Sep-07 10:00N 32°04' W 118°30'0 0.8
2017-Sep-07 09:30N 32°04' W 118°30'0 0.8
2017-Sep-07 09:00N 32°04' W 118°31'0 0.7
2017-Sep-07 08:30N 32°04' W 118°31'0 0.5
2017-Sep-07 08:00N 32°04' W 118°32'0 0.6
2017-Sep-07 07:30N 32°04' W 118°32'0 0.5
2017-Sep-07 07:00N 32°04' W 118°32'0 0.4
2017-Sep-07 06:30N 32°04' W 118°33'0 0.4
2017-Sep-07 06:00N 32°04' W 118°33'0 0.5
2017-Sep-07 05:30N 32°04' W 118°33'0 0.6
2017-Sep-07 05:00N 32°04' W 118°33'  
Track history (hours):
 
Tides and Currents Weather Stations Pressure Air Temp Water Temp Dewpoint Dewpoint Depression Visibility Wind Speed Wind Dir Waves Ship Positions

Starlight Venture

Last reported at 2017-Sep-17 04:40 UTC. Time now 2017-Nov-23 03:35 UTC.
Position N 25°44' W 115°38'.
Warning: this ship's position is months out of date.

Length 333 m; draft 11 m.

Type: Tanker. MMSI: 477680100.

Date/timePositionNaut miles runAvg speedWind from/ knotsBaromVisibWave heightAir tempDewpointWater temp
2017-Sep-17 04:40N 25°44' W 115°38'214.4
2017-Sep-17 04:30N 25°47' W 115°38'714.8
2017-Sep-17 04:00N 25°54' W 115°40'38813.9
2017-Sep-16 00:10N 32°09' W 117°34'214.1
2017-Sep-16 00:00N 32°11' W 117°35'713.8
2017-Sep-15 23:30N 32°17' W 117°38'713.8
2017-Sep-15 23:00N 32°24' W 117°41'714.1
2017-Sep-15 22:30N 32°30' W 117°44'714.1
2017-Sep-15 22:01N 32°37' W 117°47'714.3
2017-Sep-15 21:31N 32°43' W 117°50'714.4
2017-Sep-15 21:01N 32°50' W 117°53'714.2
2017-Sep-15 20:30N 32°57' W 117°56'714.2
2017-Sep-15 20:00N 33°03' W 117°59'612.1
2017-Sep-15 19:30N 33°09' W 118°01'611.5
2017-Sep-15 19:00N 33°14' W 118°04'510.3
2017-Sep-15 18:31N 33°19' W 118°06'4 7.5
2017-Sep-15 18:01N 33°23' W 118°08'4 7.8
2017-Sep-15 17:31N 33°26' W 118°09'4 7.8
2017-Sep-15 17:00N 33°30' W 118°11'4 7.9
2017-Sep-15 16:31N 33°34' W 118°12'4 7.4
2017-Sep-15 16:00N 33°38' W 118°12'3 6.9
2017-Sep-15 15:30N 33°41' W 118°11'3 5.9
2017-Sep-15 15:00N 33°44' W 118°12'2 3.1
2017-Sep-15 14:23N 33°45' W 118°13'0 0.0
2017-Sep-15 12:16N 33°45' W 118°13'0 0.0
2017-Sep-15 10:58N 33°45' W 118°13'0 0.0
2017-Sep-15 10:28N 33°45' W 118°13'0 0.0
2017-Sep-15 07:34N 33°45' W 118°13'0 0.0
2017-Sep-15 01:04N 33°45' W 118°13'0 0.0
2017-Sep-15 00:58N 33°45' W 118°13'0 0.0
2017-Sep-15 00:28N 33°45' W 118°13'0 0.0
2017-Sep-14 23:58N 33°45' W 118°13'0 0.0
2017-Sep-14 23:22N 33°45' W 118°13'0 0.0
2017-Sep-14 22:58N 33°45' W 118°13'0 0.0
2017-Sep-14 22:28N 33°45' W 118°13'0 0.0
2017-Sep-14 20:34N 33°45' W 118°13'0 0.1
2017-Sep-14 20:28N 33°45' W 118°13'0 0.0
2017-Sep-14 19:46N 33°45' W 118°13'0 0.0
2017-Sep-14 19:28N 33°45' W 118°13'0 0.0
2017-Sep-14 17:58N 33°45' W 118°13'0 0.8
2017-Sep-14 17:30N 33°45' W 118°13'2 4.7
2017-Sep-14 17:00N 33°43' W 118°11'3 6.1
2017-Sep-14 16:30N 33°40' W 118°10'3 6.2
2017-Sep-14 16:00N 33°37' W 118°10'4 7.6
2017-Sep-14 15:30N 33°34' W 118°09'5 8.8
2017-Sep-14 15:00N 33°29' W 118°07'5 9.8
2017-Sep-14 14:30N 33°25' W 118°05'510.8
2017-Sep-14 14:00N 33°20' W 118°03'5 9.9
2017-Sep-14 13:30N 33°18' W 117°57'3 6.4
2017-Sep-14 13:00N 33°17' W 117°54'0 0.1
2017-Sep-14 12:30N 33°17' W 117°54'0 0.2
2017-Sep-14 12:00N 33°17' W 117°54'0 0.3
2017-Sep-14 11:30N 33°17' W 117°54'0 0.3
2017-Sep-14 11:00N 33°17' W 117°54'0 0.4
2017-Sep-14 10:30N 33°17' W 117°54'0 0.5
2017-Sep-14 10:00N 33°18' W 117°54'0 0.5
2017-Sep-14 09:30N 33°18' W 117°54'0 0.6
2017-Sep-14 09:00N 33°18' W 117°54'0 0.6
2017-Sep-14 08:30N 33°19' W 117°54'0 0.5
2017-Sep-14 08:00N 33°19' W 117°54'0 0.5
2017-Sep-14 07:30N 33°19' W 117°54'0 0.5
2017-Sep-14 07:00N 33°19' W 117°54'0 0.5
2017-Sep-14 06:30N 33°19' W 117°55'0 0.6
2017-Sep-14 06:00N 33°19' W 117°55'0 0.5
2017-Sep-14 05:30N 33°19' W 117°55'1 1.7
2017-Sep-14 05:00N 33°18' W 117°55'3 5.2
2017-Sep-14 04:30N 33°16' W 117°55'4 9.0
2017-Sep-14 04:00N 33°12' W 117°53'511.0
2017-Sep-14 03:30N 33°06' W 117°51'510.0
2017-Sep-14 03:00N 33°01' W 117°51'1 2.1
2017-Sep-14 02:30N 33°00' W 117°51'0 0.9
2017-Sep-14 02:00N 33°01' W 117°51'0 1.0
2017-Sep-14 01:30N 33°01' W 117°52'0 0.9
2017-Sep-14 01:00N 33°01' W 117°53'0 0.8
2017-Sep-14 00:30N 33°01' W 117°53'0 0.7
2017-Sep-14 00:00N 33°01' W 117°53'0 0.8
2017-Sep-13 23:30N 33°01' W 117°54'0 0.8
2017-Sep-13 23:00N 33°01' W 117°54'0 0.7
2017-Sep-13 22:30N 33°01' W 117°55'0 0.6
2017-Sep-13 22:00N 33°01' W 117°55'0 0.6
2017-Sep-13 21:30N 33°01' W 117°55'0 0.8
2017-Sep-13 21:00N 33°01' W 117°56'1 2.0
2017-Sep-13 20:30N 33°00' W 117°57'2 4.5
2017-Sep-13 20:00N 32°59' W 117°59'3 6.8
2017-Sep-13 19:30N 32°56' W 118°01'611.6
2017-Sep-13 19:00N 32°50' W 118°03'713.1
2017-Sep-13 18:30N 32°44' W 118°03'713.4
2017-Sep-13 18:00N 32°37' W 118°05'713.8
2017-Sep-13 17:30N 32°31' W 118°08'713.9
2017-Sep-13 17:00N 32°24' W 118°11'713.4
2017-Sep-13 16:30N 32°18' W 118°14'611.7
2017-Sep-13 16:00N 32°13' W 118°16'4 7.8
2017-Sep-13 15:30N 32°09' W 118°18'2 4.3
2017-Sep-13 15:00N 32°07' W 118°19'0 0.8
2017-Sep-13 14:30N 32°07' W 118°20'0 0.6
2017-Sep-13 14:00N 32°07' W 118°20'0 0.7
2017-Sep-13 13:30N 32°07' W 118°21'0 0.7
2017-Sep-13 13:00N 32°07' W 118°21'0 0.7
2017-Sep-13 12:30N 32°07' W 118°21'0 0.7
2017-Sep-13 12:00N 32°06' W 118°22'0 0.8
2017-Sep-13 11:30N 32°06' W 118°22'0 0.7
2017-Sep-13 11:00N 32°06' W 118°22'0 0.7
2017-Sep-13 10:30N 32°06' W 118°23'0 0.7
2017-Sep-13 10:00N 32°06' W 118°23'0 0.6
2017-Sep-13 09:30N 32°06' W 118°23'0 0.6
2017-Sep-13 09:00N 32°05' W 118°24'0 0.7
2017-Sep-13 08:30N 32°05' W 118°24'0 0.8
2017-Sep-13 07:58N 32°05' W 118°24'0 0.9
2017-Sep-13 07:30N 32°05' W 118°25'0 0.8
2017-Sep-13 07:00N 32°05' W 118°25'0 0.8
2017-Sep-13 06:30N 32°04' W 118°26'0 0.8
2017-Sep-13 06:00N 32°04' W 118°26'0 0.7
2017-Sep-13 05:30N 32°04' W 118°26'0 0.6
2017-Sep-13 05:00N 32°04' W 118°27'0 0.6
2017-Sep-13 04:30N 32°03' W 118°27'0 0.4
2017-Sep-13 04:00N 32°03' W 118°27'0 0.4
2017-Sep-13 03:30N 32°03' W 118°27'0 0.3
2017-Sep-13 03:00N 32°03' W 118°28'0 0.4
2017-Sep-13 02:30N 32°03' W 118°28'0 0.4
2017-Sep-13 02:00N 32°03' W 118°28'0 0.3
2017-Sep-13 01:30N 32°03' W 118°28'0 0.4
2017-Sep-13 01:00N 32°03' W 118°28'0 0.5
2017-Sep-13 00:30N 32°04' W 118°29'0 0.4
2017-Sep-13 00:00N 32°04' W 118°29'0 0.5
2017-Sep-12 23:30N 32°04' W 118°29'0 0.5
2017-Sep-12 23:00N 32°04' W 118°29'0 0.5
2017-Sep-12 22:30N 32°04' W 118°29'0 0.6
2017-Sep-12 22:00N 32°05' W 118°29'0 0.6
2017-Sep-12 21:30N 32°05' W 118°30'0 0.7
2017-Sep-12 21:00N 32°05' W 118°30'0 0.7
2017-Sep-12 20:30N 32°05' W 118°30'0 0.7
2017-Sep-12 20:00N 32°05' W 118°31'0 0.4
2017-Sep-12 19:30N 32°05' W 118°31'0 0.4
2017-Sep-12 19:00N 32°05' W 118°31'0 0.5
2017-Sep-12 18:30N 32°05' W 118°31'0 0.6
2017-Sep-12 18:00N 32°05' W 118°32'0 0.4
2017-Sep-12 17:30N 32°05' W 118°32'0 0.4
2017-Sep-12 17:00N 32°05' W 118°32'0 0.6
2017-Sep-12 16:30N 32°05' W 118°32'0 0.5
2017-Sep-12 16:00N 32°04' W 118°33'0 0.2
2017-Sep-12 15:30N 32°04' W 118°33'0 0.2
2017-Sep-12 15:00N 32°04' W 118°33'0 0.3
2017-Sep-12 14:30N 32°04' W 118°33'0 0.3
2017-Sep-12 14:00N 32°04' W 118°33'0 0.4
2017-Sep-12 13:30N 32°04' W 118°33'0 0.4
2017-Sep-12 13:00N 32°04' W 118°34'0 0.4
2017-Sep-12 12:30N 32°04' W 118°34'0 0.5
2017-Sep-12 12:00N 32°04' W 118°34'0 0.6
2017-Sep-12 11:30N 32°04' W 118°35'0 0.7
2017-Sep-12 11:00N 32°04' W 118°35'0 0.8
2017-Sep-12 10:30N 32°04' W 118°36'0 0.7
2017-Sep-12 10:00N 32°04' W 118°36'0 0.7
2017-Sep-12 09:30N 32°04' W 118°36'0 0.5
2017-Sep-12 09:00N 32°04' W 118°37'0 0.6
2017-Sep-12 08:30N 32°04' W 118°37'0 0.6
2017-Sep-12 08:00N 32°03' W 118°37'0 0.4
2017-Sep-12 07:30N 32°03' W 118°37'0 0.4
2017-Sep-12 07:00N 32°03' W 118°37'0 0.5
2017-Sep-12 06:30N 32°03' W 118°37'0 0.3
2017-Sep-12 06:00N 32°03' W 118°37'0 0.0
2017-Sep-12 05:29N 32°03' W 118°37'0 0.3
2017-Sep-12 05:00N 32°03' W 118°37'0 0.2
2017-Sep-12 04:30N 32°03' W 118°38'0 0.5
2017-Sep-12 04:00N 32°03' W 118°38'0 0.5
2017-Sep-12 03:30N 32°03' W 118°38'0 0.5
2017-Sep-12 03:00N 32°03' W 118°38'0 0.5
2017-Sep-12 02:30N 32°03' W 118°38'0 0.6
2017-Sep-12 02:00N 32°03' W 118°39'0 0.6
2017-Sep-12 01:30N 32°04' W 118°39'0 0.6
2017-Sep-12 01:00N 32°04' W 118°39'0 0.6
2017-Sep-12 00:30N 32°04' W 118°39'0 0.7
2017-Sep-12 00:00N 32°04' W 118°39'0 0.7
2017-Sep-11 23:30N 32°05' W 118°40'0 0.9
2017-Sep-11 23:00N 32°05' W 118°40'0 0.8
2017-Sep-11 22:30N 32°05' W 118°40'0 0.8
2017-Sep-11 22:00N 32°05' W 118°41'0 0.8
2017-Sep-11 21:30N 32°06' W 118°41'0 0.7
2017-Sep-11 21:00N 32°06' W 118°41'0 0.5
2017-Sep-11 20:30N 32°06' W 118°42'0 0.4
2017-Sep-11 20:00N 32°06' W 118°42'0 0.3
2017-Sep-11 19:30N 32°06' W 118°42'0 0.2
2017-Sep-11 19:00N 32°06' W 118°42'0 0.4
2017-Sep-11 18:30N 32°06' W 118°42'0 0.3
2017-Sep-11 18:00N 32°06' W 118°43'0 0.4
2017-Sep-11 17:30N 32°06' W 118°43'0 0.3
2017-Sep-11 17:00N 32°06' W 118°43'0 0.2
2017-Sep-11 16:30N 32°06' W 118°43'0 0.1
2017-Sep-11 16:00N 32°06' W 118°43'0 0.1
2017-Sep-11 15:30N 32°06' W 118°43'0 0.2
2017-Sep-11 15:00N 32°05' W 118°43'0 0.0
2017-Sep-11 14:28N 32°05' W 118°43'0 0.1
2017-Sep-11 14:00N 32°05' W 118°43'0 0.3
2017-Sep-11 13:30N 32°06' W 118°43'0 0.3
2017-Sep-11 13:00N 32°06' W 118°43'0 0.3
2017-Sep-11 12:30N 32°06' W 118°43'0 0.3
2017-Sep-11 12:00N 32°06' W 118°43'0 0.5
2017-Sep-11 11:30N 32°06' W 118°43'0 0.4
2017-Sep-11 11:00N 32°06' W 118°43'0 0.5
2017-Sep-11 10:30N 32°07' W 118°43'0 0.5
2017-Sep-11 10:00N 32°07' W 118°44'0 0.6
2017-Sep-11 09:30N 32°07' W 118°44'0 0.7
2017-Sep-11 09:00N 32°07' W 118°44'0 0.7
2017-Sep-11 08:27N 32°08' W 118°44'0 0.6
2017-Sep-11 08:00N 32°08' W 118°44'0 0.6
2017-Sep-11 07:30N 32°08' W 118°45'0 0.5
2017-Sep-11 07:00N 32°08' W 118°45'0 0.5
2017-Sep-11 06:30N 32°08' W 118°45'0 0.6
2017-Sep-11 06:00N 32°09' W 118°45'0 0.5
2017-Sep-11 05:30N 32°09' W 118°45'0 0.6
2017-Sep-11 05:00N 32°09' W 118°45'0 0.6
2017-Sep-11 04:30N 32°09' W 118°46'0 0.8
2017-Sep-11 04:00N 32°10' W 118°46'0 0.8
2017-Sep-11 03:30N 32°10' W 118°46'0 0.9
2017-Sep-11 03:00N 32°10' W 118°47'1 1.2
2017-Sep-11 02:30N 32°11' W 118°47'1 1.6
2017-Sep-11 02:00N 32°11' W 118°48'1 1.6
2017-Sep-11 01:30N 32°11' W 118°49'1 1.7
2017-Sep-11 01:00N 32°11' W 118°50'3 5.6
2017-Sep-11 00:30N 32°08' W 118°50'612.7
2017-Sep-11 00:00N 32°02' W 118°51'613.0
2017-Sep-10 23:30N 31°55' W 118°51'713.6
2017-Sep-10 23:00N 31°48' W 118°52'713.3
2017-Sep-10 22:30N 31°42' W 118°52'713.6
2017-Sep-10 21:59N 31°35' W 118°53'713.6
2017-Sep-10 21:30N 31°28' W 118°53'713.4
2017-Sep-10 21:00N 31°21' W 118°53'713.4
2017-Sep-10 20:30N 31°15' W 118°54'713.7
2017-Sep-10 20:00N 31°08' W 118°54'713.6
2017-Sep-10 19:30N 31°01' W 118°54'713.3
2017-Sep-10 19:00N 30°54' W 118°54'713.2
2017-Sep-10 18:30N 30°48' W 118°54'713.5
2017-Sep-10 18:00N 30°41' W 118°54'612.8
2017-Sep-10 17:30N 30°35' W 118°54'612.5
2017-Sep-10 17:00N 30°28' W 118°55'4 7.7
2017-Sep-10 16:30N 30°25' W 118°55'5 6.7
2017-Sep-10 15:42N 30°19' W 118°56'1 3.7
2017-Sep-10 15:28N 30°18' W 118°56'5 1.6
2017-Sep-10 12:15N 30°23' W 118°55'8 1.8
2017-Sep-10 07:42N 30°32' W 118°56'0 1.9
2017-Sep-10 07:26N 30°32' W 118°57'3 1.8
2017-Sep-10 05:50N 30°35' W 118°57'1 1.8
2017-Sep-10 05:30N 30°35' W 118°58'1 1.8
2017-Sep-10 05:00N 30°36' W 118°58'5 1.8
2017-Sep-10 02:26N 30°40' W 119°00'1 1.9
2017-Sep-10 01:51N 30°41' W 119°01'1 1.7
2017-Sep-10 01:30N 30°42' W 119°01'1 1.5
2017-Sep-10 01:00N 30°43' W 119°02'1 1.2
2017-Sep-10 00:26N 30°43' W 119°02'1 1.3
2017-Sep-10 00:00N 30°44' W 119°02'1 1.4
2017-Sep-09 23:26N 30°45' W 119°02'1 1.5
2017-Sep-09 23:00N 30°45' W 119°02'1 1.5
2017-Sep-09 22:27N 30°46' W 119°02'1 1.5
2017-Sep-09 21:45N 30°47' W 119°03'1 1.6
2017-Sep-09 21:07N 30°48' W 119°03'0 1.5
2017-Sep-09 21:00N 30°48' W 119°03'1 1.4
2017-Sep-09 20:24N 30°49' W 119°03'1 1.1
2017-Sep-09 19:11N 30°50' W 119°04'1 1.1
2017-Sep-09 18:23N 30°51' W 119°04'1 1.0
2017-Sep-09 17:47N 30°52' W 119°04'0 1.1
2017-Sep-09 17:21N 30°52' W 119°05'0 1.2
2017-Sep-09 16:57N 30°53' W 119°05'1 1.4
2017-Sep-09 16:15N 30°54' W 119°05'2 1.7
2017-Sep-09 15:01N 30°56' W 119°05'0 1.7
2017-Sep-09 14:50N 30°56' W 119°05'7 1.8
2017-Sep-09 10:51N 31°03' W 119°08'1 1.8
2017-Sep-09 10:17N 31°04' W 119°08'0 1.5
2017-Sep-09 10:00N 31°04' W 119°08'1 1.5
2017-Sep-09 09:00N 31°06' W 119°09'1 1.4
2017-Sep-09 08:24N 31°06' W 119°09'1 1.3
2017-Sep-09 07:56N 31°07' W 119°09'1 1.3
2017-Sep-09 07:04N 31°08' W 119°10'0 1.5
2017-Sep-09 06:59N 31°08' W 119°10'1 1.6
2017-Sep-09 06:07N 31°10' W 119°10'0 1.6
2017-Sep-09 06:00N 31°10' W 119°10'1 1.7
2017-Sep-09 05:28N 31°11' W 119°10'1 1.7
2017-Sep-09 04:48N 31°12' W 119°10'1 1.8
2017-Sep-09 04:11N 31°13' W 119°10'0 1.8
2017-Sep-09 04:00N 31°13' W 119°10'1 1.9
2017-Sep-09 03:19N 31°15' W 119°10'1 1.8
2017-Sep-09 02:58N 31°15' W 119°10'1 2.0
2017-Sep-09 02:30N 31°16' W 119°10'1 2.0
2017-Sep-09 02:00N 31°17' W 119°10'1 1.9
2017-Sep-09 01:30N 31°18' W 119°10'1 2.0
2017-Sep-09 01:00N 31°19' W 119°10'1 2.0
2017-Sep-09 00:30N 31°20' W 119°10'1 2.0
2017-Sep-09 00:00N 31°21' W 119°11'1 1.9
2017-Sep-08 23:30N 31°22' W 119°11'1 1.9
2017-Sep-08 23:00N 31°23' W 119°11'1 1.9
2017-Sep-08 22:30N 31°24' W 119°11'1 1.7
2017-Sep-08 22:00N 31°25' W 119°12'1 1.6
2017-Sep-08 21:30N 31°25' W 119°12'1 1.6
2017-Sep-08 21:00N 31°26' W 119°12'1 1.6
2017-Sep-08 20:30N 31°27' W 119°12'1 1.6
2017-Sep-08 20:00N 31°28' W 119°13'1 1.5
2017-Sep-08 19:30N 31°28' W 119°13'1 1.4
2017-Sep-08 19:00N 31°29' W 119°13'1 1.4
2017-Sep-08 18:30N 31°30' W 119°13'1 1.4
2017-Sep-08 18:00N 31°30' W 119°14'1 1.3
2017-Sep-08 17:30N 31°31' W 119°14'1 1.4
2017-Sep-08 17:00N 31°32' W 119°14'1 1.7
2017-Sep-08 16:30N 31°32' W 119°14'1 1.9
2017-Sep-08 16:00N 31°33' W 119°14'1 2.1
2017-Sep-08 15:30N 31°34' W 119°15'1 2.3
2017-Sep-08 15:00N 31°36' W 119°15'1 2.5
2017-Sep-08 14:30N 31°37' W 119°15'1 2.5
2017-Sep-08 14:00N 31°38' W 119°15'1 2.4
2017-Sep-08 13:30N 31°39' W 119°15'1 2.3
2017-Sep-08 13:00N 31°40' W 119°15'1 2.4
2017-Sep-08 12:30N 31°42' W 119°15'1 2.4
2017-Sep-08 12:00N 31°43' W 119°15'1 2.5
2017-Sep-08 11:30N 31°44' W 119°15'1 2.6
2017-Sep-08 11:00N 31°45' W 119°15'1 2.6
2017-Sep-08 10:30N 31°47' W 119°15'1 2.6
2017-Sep-08 10:00N 31°48' W 119°15'1 2.6
2017-Sep-08 09:30N 31°49' W 119°15'1 2.6
2017-Sep-08 09:00N 31°51' W 119°15'1 2.6
2017-Sep-08 08:29N 31°52' W 119°15'1 2.7
2017-Sep-08 08:00N 31°53' W 119°15'1 2.8
2017-Sep-08 07:30N 31°55' W 119°15'1 2.8
2017-Sep-08 07:00N 31°56' W 119°15'2 3.0
2017-Sep-08 06:30N 31°57' W 119°15'2 3.0
2017-Sep-08 06:00N 31°59' W 119°15'1 2.9
2017-Sep-08 05:30N 32°00' W 119°15'1 2.8
2017-Sep-08 05:00N 32°02' W 119°15'1 2.9
2017-Sep-08 04:30N 32°03' W 119°15'1 2.8
2017-Sep-08 04:00N 32°05' W 119°16'1 2.9
2017-Sep-08 03:30N 32°06' W 119°16'1 2.5
2017-Sep-08 03:00N 32°07' W 119°15'5 9.4
2017-Sep-08 02:30N 32°07' W 119°09'612.5
2017-Sep-08 02:00N 32°07' W 119°02'612.8
2017-Sep-08 01:30N 32°06' W 118°54'713.2
2017-Sep-08 01:00N 32°06' W 118°47'713.3
2017-Sep-08 00:30N 32°05' W 118°39'713.2
2017-Sep-08 00:00N 32°04' W 118°31'712.9
2017-Sep-07 23:30N 32°04' W 118°23'612.7
2017-Sep-07 23:00N 32°04' W 118°16'611.9
2017-Sep-07 22:30N 32°04' W 118°09'1 2.1
2017-Sep-07 22:00N 32°03' W 118°08'1 1.8
2017-Sep-07 21:30N 32°03' W 118°09'1 1.7
2017-Sep-07 21:00N 32°04' W 118°10'1 1.8
2017-Sep-07 20:30N 32°04' W 118°11'1 2.0
2017-Sep-07 20:00N 32°04' W 118°12'1 1.9
2017-Sep-07 19:30N 32°04' W 118°13'1 1.9
2017-Sep-07 19:00N 32°04' W 118°15'1 1.8
2017-Sep-07 18:30N 32°04' W 118°16'1 1.6
2017-Sep-07 18:00N 32°04' W 118°17'1 1.2
2017-Sep-07 17:30N 32°04' W 118°17'1 1.3
2017-Sep-07 17:00N 32°04' W 118°18'1 1.3
2017-Sep-07 16:30N 32°04' W 118°19'1 1.3
2017-Sep-07 16:00N 32°04' W 118°20'1 1.4
2017-Sep-07 15:30N 32°04' W 118°21'1 1.4
2017-Sep-07 15:00N 32°04' W 118°21'1 1.7
2017-Sep-07 14:30N 32°04' W 118°22'1 1.7
2017-Sep-07 14:00N 32°04' W 118°23'1 1.8
2017-Sep-07 13:30N 32°04' W 118°24'1 1.7
2017-Sep-07 13:00N 32°04' W 118°25'1 1.6
2017-Sep-07 12:30N 32°04' W 118°26'1 1.5
2017-Sep-07 12:00N 32°04' W 118°27'1 1.4
2017-Sep-07 11:30N 32°04' W 118°28'1 1.2
2017-Sep-07 11:00N 32°04' W 118°29'1 1.0
2017-Sep-07 10:30N 32°04' W 118°29'0 0.9
2017-Sep-07 10:00N 32°04' W 118°30'0 0.8
2017-Sep-07 09:30N 32°04' W 118°30'0 0.8
2017-Sep-07 09:00N 32°04' W 118°31'0 0.7
2017-Sep-07 08:30N 32°04' W 118°31'0 0.5
2017-Sep-07 08:00N 32°04' W 118°32'0 0.6
2017-Sep-07 07:30N 32°04' W 118°32'0 0.5
2017-Sep-07 07:00N 32°04' W 118°32'0 0.4
2017-Sep-07 06:30N 32°04' W 118°33'0 0.4
2017-Sep-07 06:00N 32°04' W 118°33'0 0.5
2017-Sep-07 05:30N 32°04' W 118°33'0 0.6
2017-Sep-07 05:00N 32°04' W 118°33'  

Dump ship's entire track history